Time;durP1;ratioP1;P1;durP2;ratioP2;P2;SDS_P1;SDS_P2;PMS_P1;PMS_P2;Temp;Humidity;BMP_temperature;BMP_pressure;BME280_temperature;BME280_humidity;BME280_pressure;Samples;Min_cycle;Max_cycle;Signal;HPM_P1;HPM_P2
2022/12/19 00:02:03;;;;;;;64.53;32.65;;;-1.80;99.90;;;;;;5013603;28;20033;-52
2022/12/19 00:04:29;;;;;;;62.88;30.05;;;-1.70;99.90;;;;;;5013881;28;20133;-50
2022/12/19 00:06:57;;;;;;;66.13;32.85;;;-1.70;99.90;;;;;;5013936;28;20105;-50
2022/12/19 00:09:23;;;;;;;63.28;30.20;;;-1.60;99.90;;;;;;5013202;28;20022;-51
2022/12/19 00:11:48;;;;;;;58.28;30.77;;;-1.50;99.90;;;;;;5013895;28;20101;-50
2022/12/19 00:14:14;;;;;;;59.25;30.75;;;-1.40;99.90;;;;;;5013710;28;20032;-55
2022/12/19 00:16:40;;;;;;;61.63;30.60;;;-1.40;99.90;;;;;;5012700;28;20030;-51
2022/12/19 00:19:06;;;;;;;60.05;29.83;;;-1.40;99.90;;;;;;5013814;28;20022;-54
2022/12/19 00:21:33;;;;;;;60.05;30.75;;;-1.40;99.90;;;;;;5013787;28;20427;-51
2022/12/19 00:23:59;;;;;;;61.22;29.63;;;-1.30;99.90;;;;;;5011590;28;20095;-53
2022/12/19 00:26:30;;;;;;;61.17;28.65;;;-1.30;99.90;;;;;;5013466;28;20100;-53
2022/12/19 00:28:58;;;;;;;65.95;31.27;;;-1.30;99.90;;;;;;5013736;28;20025;-55
2022/12/19 00:31:26;;;;;;;57.28;30.63;;;-1.30;99.90;;;;;;5013616;28;20018;-56
2022/12/19 00:33:51;;;;;;;58.10;31.80;;;-1.30;99.90;;;;;;5012765;28;20030;-53
2022/12/19 00:36:22;;;;;;;56.70;29.48;;;-1.20;99.90;;;;;;5013309;28;20149;-50
2022/12/19 00:38:47;;;;;;;56.60;28.35;;;-1.20;99.90;;;;;;5013463;28;20045;-50
2022/12/19 00:41:19;;;;;;;61.40;30.70;;;-1.20;99.90;;;;;;5013371;28;20030;-53
2022/12/19 00:43:45;;;;;;;54.47;30.50;;;-1.20;99.90;;;;;;5012591;28;20401;-54
2022/12/19 00:46:13;;;;;;;60.15;30.33;;;-1.20;99.90;;;;;;5013117;28;20032;-52
2022/12/19 00:48:39;;;;;;;61.42;30.70;;;-1.20;99.90;;;;;;5013048;28;20374;-50
2022/12/19 00:51:10;;;;;;;58.30;30.83;;;-1.20;99.90;;;;;;5013120;28;20105;-51
2022/12/19 00:53:35;;;;;;;57.90;30.92;;;-1.20;99.90;;;;;;5012287;28;20034;-53
2022/12/19 00:56:03;;;;;;;62.70;30.02;;;-1.20;99.90;;;;;;5012878;28;20037;-50
2022/12/19 00:58:29;;;;;;;62.50;30.70;;;-1.10;99.90;;;;;;5012760;28;20057;-52
2022/12/19 01:00:55;;;;;;;59.97;31.40;;;-1.20;99.90;;;;;;5013504;28;20064;-53
2022/12/19 01:03:20;;;;;;;63.83;32.50;;;-1.20;99.90;;;;;;5010770;28;20113;-55
2022/12/19 01:05:46;;;;;;;68.30;31.75;;;-1.20;99.90;;;;;;5032866;23;20073;-44
2022/12/19 01:08:11;;;;;;;63.17;31.30;;;-1.20;99.90;;;;;;5013075;28;20049;-44
2022/12/19 01:10:43;;;;;;;57.47;30.42;;;-1.30;99.90;;;;;;5010937;28;20022;-46
2022/12/19 01:13:09;;;;;;;63.20;31.27;;;-1.30;99.90;;;;;;4993913;28;20018;-48
2022/12/19 01:15:38;;;;;;;59.38;29.73;;;-1.30;99.90;;;;;;5015596;28;20025;-44
2022/12/19 01:18:04;;;;;;;56.10;28.52;;;-1.30;99.90;;;;;;5032727;28;20026;-44
2022/12/19 01:20:29;;;;;;;63.60;30.23;;;-1.10;99.90;;;;;;5032409;28;20076;-45
2022/12/19 01:22:55;;;;;;;58.03;29.65;;;-1.20;99.90;;;;;;5031656;28;20030;-49
2022/12/19 01:25:20;;;;;;;60.15;28.33;;;-1.20;99.90;;;;;;5032110;28;20072;-44
2022/12/19 01:27:46;;;;;;;61.92;30.13;;;-1.20;99.90;;;;;;5014434;28;20065;-47
2022/12/19 01:30:11;;;;;;;60.97;29.75;;;-1.20;99.90;;;;;;5014647;28;20519;-44
2022/12/19 01:32:37;;;;;;;59.05;27.58;;;-1.30;99.90;;;;;;5031651;28;20389;-44
2022/12/19 01:35:03;;;;;;;55.72;26.75;;;-1.30;99.90;;;;;;5014426;28;20032;-45
2022/12/19 01:37:28;;;;;;;61.20;30.00;;;-1.30;99.90;;;;;;5014333;28;20163;-48
2022/12/19 01:39:54;;;;;;;61.47;27.83;;;-1.30;99.90;;;;;;5032115;28;20033;-44
2022/12/19 01:42:21;;;;;;;57.80;28.88;;;-1.30;99.90;;;;;;5031128;28;20414;-44
2022/12/19 01:45:08;;;;;;;50.83;26.42;;;-1.30;99.90;;;;;;5032067;28;20029;-46
2022/12/19 01:47:42;;;;;;;57.05;28.35;;;-1.30;99.90;;;;;;5031853;28;20033;-45
2022/12/19 01:50:14;;;;;;;58.55;29.55;;;-1.40;99.90;;;;;;5032225;28;20552;-44
2022/12/19 01:52:41;;;;;;;62.55;31.00;;;-1.40;99.90;;;;;;5031150;28;20028;-44
2022/12/19 01:55:08;;;;;;;50.40;25.95;;;-1.40;99.90;;;;;;5032157;28;20041;-44
2022/12/19 01:57:34;;;;;;;56.63;28.10;;;-1.40;99.90;;;;;;5031897;28;20032;-44
2022/12/19 02:00:02;;;;;;;54.13;28.13;;;-1.40;99.90;;;;;;5031010;28;20030;-45
2022/12/19 02:02:32;;;;;;;59.38;29.05;;;-1.40;99.90;;;;;;5033608;28;20029;-44
2022/12/19 02:05:00;;;;;;;58.08;29.05;;;-1.40;99.90;;;;;;5032455;28;20025;-44
2022/12/19 02:07:27;;;;;;;60.90;28.48;;;-1.40;99.90;;;;;;5032875;28;20080;-49
2022/12/19 02:09:54;;;;;;;58.03;28.73;;;-1.40;99.90;;;;;;5031714;28;20017;-44
2022/12/19 02:12:20;;;;;;;54.35;27.75;;;-1.40;99.90;;;;;;5013816;28;20091;-45
2022/12/19 02:14:46;;;;;;;58.85;29.80;;;-1.40;99.90;;;;;;5031736;28;20485;-43
2022/12/19 02:17:33;;;;;;;59.47;28.77;;;-1.40;99.90;;;;;;5031467;28;20033;-44
2022/12/19 02:20:20;;;;;;;57.33;27.10;;;-1.40;99.90;;;;;;5030200;28;20022;-46
2022/12/19 02:23:00;;;;;;;57.63;28.38;;;-1.30;99.90;;;;;;5030479;28;20117;-45
2022/12/19 02:26:06;;;;;;;61.17;28.65;;;-1.20;99.90;;;;;;5031381;28;20099;-45
2022/12/19 02:28:37;;;;;;;62.90;29.38;;;-1.20;99.90;;;;;;5026393;28;20041;-44
2022/12/19 02:31:21;;;;;;;56.75;28.25;;;-1.20;99.90;;;;;;5031454;28;20021;-45
2022/12/19 02:34:01;;;;;;;50.95;29.27;;;-1.20;99.90;;;;;;5029413;28;20033;-44
2022/12/19 02:36:54;;;;;;;57.05;27.67;;;-1.20;99.90;;;;;;5031154;28;20029;-44
2022/12/19 02:39:26;;;;;;;53.05;25.75;;;-1.20;99.90;;;;;;5031374;28;20030;-45
2022/12/19 02:41:57;;;;;;;64.25;30.98;;;-1.10;99.90;;;;;;5031214;28;20028;-42
2022/12/19 02:44:36;;;;;;;50.92;26.83;;;-1.00;99.90;;;;;;5031275;28;20105;-45
2022/12/19 02:47:03;;;;;;;54.28;30.00;;;-1.00;99.90;;;;;;5031022;28;20116;-45
2022/12/19 02:49:32;;;;;;;58.38;29.05;;;-1.00;99.90;;;;;;5031391;28;20105;-44
2022/12/19 02:52:11;;;;;;;54.17;27.95;;;-0.90;99.90;;;;;;5030372;28;20107;-42
2022/12/19 02:54:38;;;;;;;59.10;28.85;;;-1.00;99.90;;;;;;5013627;28;20036;-44
2022/12/19 02:57:27;;;;;;;53.75;26.95;;;-1.00;99.90;;;;;;5030956;28;20025;-43
2022/12/19 02:59:58;;;;;;;54.88;27.92;;;-1.00;99.90;;;;;;5031229;28;20037;-46
2022/12/19 03:02:46;;;;;;;56.70;27.50;;;-1.00;99.90;;;;;;5030407;28;20104;-49
2022/12/19 03:05:26;;;;;;;54.42;28.02;;;-1.10;99.90;;;;;;5031014;28;20555;-48
2022/12/19 03:08:20;;;;;;;58.42;27.55;;;-1.00;99.90;;;;;;5030881;28;20057;-44
2022/12/19 03:11:00;;;;;;;53.47;27.90;;;-1.00;99.90;;;;;;5029223;28;20397;-44
2022/12/19 03:13:38;;;;;;;60.17;28.48;;;-1.00;99.90;;;;;;5030144;28;20034;-44
2022/12/19 03:16:07;;;;;;;58.42;28.30;;;-1.00;99.90;;;;;;5030968;28;20486;-44
2022/12/19 03:18:32;;;;;;;51.13;26.65;;;-1.00;99.90;;;;;;5030893;28;20047;-44
2022/12/19 03:21:19;;;;;;;59.20;28.35;;;-0.90;99.90;;;;;;5030908;28;20108;-44
2022/12/19 03:23:46;;;;;;;58.92;28.85;;;-0.90;99.90;;;;;;5028699;28;20473;-45
2022/12/19 03:26:17;;;;;;;57.50;28.52;;;-0.80;99.90;;;;;;5030816;28;20048;-45
2022/12/19 03:29:16;;;;;;;56.75;28.33;;;-0.80;99.90;;;;;;5030862;28;20025;-45
2022/12/19 03:31:44;;;;;;;54.38;26.90;;;-0.80;99.90;;;;;;5030911;28;20505;-44
2022/12/19 03:34:16;;;;;;;56.08;28.08;;;-0.70;99.90;;;;;;5030089;28;20029;-49
2022/12/19 03:36:47;;;;;;;49.33;26.10;;;-0.60;99.90;;;;;;5033871;28;20083;-46
2022/12/19 03:39:14;;;;;;;53.28;26.90;;;-0.70;99.90;;;;;;5016555;28;20040;-44
2022/12/19 03:44:31;;;;;;;55.13;27.30;;;-0.60;99.90;;;;;;5034520;28;20073;-44
2022/12/19 03:47:04;;;;;;;55.60;28.13;;;-0.60;99.90;;;;;;5033905;28;20835;-45
2022/12/19 03:49:30;;;;;;;58.85;29.02;;;-0.50;99.90;;;;;;5016470;28;20017;-44
2022/12/19 03:52:13;;;;;;;56.40;27.50;;;-0.50;99.90;;;;;;5031929;28;20049;-41
2022/12/19 03:54:43;;;;;;;57.90;27.30;;;-0.40;99.90;;;;;;5034220;28;20601;-45
2022/12/19 03:57:37;;;;;;;51.13;27.00;;;-0.40;99.90;;;;;;5016125;28;20102;-45
2022/12/19 04:00:07;;;;;;;52.15;26.85;;;-0.40;99.90;;;;;;5021438;28;20055;-46
2022/12/19 04:02:36;;;;;;;57.00;29.02;;;-0.40;99.90;;;;;;5033327;28;20022;-44
2022/12/19 04:05:07;;;;;;;60.33;29.65;;;-0.30;99.90;;;;;;5015761;28;20504;-44
2022/12/19 04:07:35;;;;;;;58.80;27.92;;;-0.30;99.90;;;;;;5033569;28;20027;-49
2022/12/19 04:10:29;;;;;;;54.60;26.88;;;-0.40;99.90;;;;;;5014398;28;20070;-44
2022/12/19 04:13:06;;;;;;;57.05;27.40;;;-0.50;99.90;;;;;;5010446;28;20039;-44
2022/12/19 04:16:02;;;;;;;53.33;28.45;;;-0.50;99.90;;;;;;5033566;28;20120;-45
2022/12/19 04:18:29;;;;;;;56.10;30.10;;;-0.50;99.90;;;;;;5008001;28;20405;-46
2022/12/19 04:21:00;;;;;;;54.35;27.95;;;-0.40;99.90;;;;;;5033575;28;20430;-47
2022/12/19 04:23:41;;;;;;;54.30;28.45;;;-0.40;99.90;;;;;;5032760;28;20021;-45
2022/12/19 04:26:08;;;;;;;58.95;29.05;;;-0.40;99.90;;;;;;5015502;28;20025;-45
2022/12/19 04:28:40;;;;;;;55.42;27.40;;;-0.30;99.90;;;;;;5033268;28;20037;-46
2022/12/19 04:31:07;;;;;;;55.42;28.98;;;-0.30;99.90;;;;;;5033389;28;20095;-48
2022/12/19 04:33:32;;;;;;;56.50;28.08;;;-0.20;99.90;;;;;;5032503;28;20022;-48
2022/12/19 04:35:59;;;;;;;56.00;28.48;;;-0.20;99.90;;;;;;5033091;28;20033;-44
2022/12/19 04:38:25;;;;;;;61.33;30.13;;;-0.20;99.90;;;;;;5015100;28;20345;-44
2022/12/19 04:40:51;;;;;;;57.80;28.67;;;-0.20;99.90;;;;;;5033212;28;20061;-47
2022/12/19 04:43:16;;;;;;;58.72;30.05;;;-0.20;99.90;;;;;;5032669;28;20119;-44
2022/12/19 04:45:42;;;;;;;55.15;27.67;;;-0.20;99.90;;;;;;5032741;28;20056;-46
2022/12/19 04:48:08;;;;;;;62.78;30.08;;;-0.20;99.90;;;;;;5015053;28;20072;-45
2022/12/19 04:50:34;;;;;;;63.45;30.45;;;-0.20;99.90;;;;;;5032871;28;20026;-44
2022/12/19 04:53:00;;;;;;;65.65;31.33;;;-0.20;99.90;;;;;;5031870;28;20060;-44
2022/12/19 04:55:26;;;;;;;58.38;30.52;;;-0.40;99.90;;;;;;5032763;28;20034;-47
2022/12/19 04:57:51;;;;;;;61.60;29.05;;;-0.50;99.90;;;;;;5032654;28;20434;-45
2022/12/19 05:00:17;;;;;;;59.22;31.08;;;-0.40;99.90;;;;;;5032874;28;20021;-44
2022/12/19 05:02:43;;;;;;;58.95;28.30;;;-0.50;99.90;;;;;;5032096;28;20037;-45
2022/12/19 05:05:08;;;;;;;60.40;30.42;;;-0.50;99.90;;;;;;5032499;28;20370;-46
2022/12/19 05:07:34;;;;;;;64.40;29.63;;;-0.50;99.90;;;;;;5032585;28;20033;-45
2022/12/19 05:09:59;;;;;;;64.18;29.60;;;-0.50;99.90;;;;;;5031063;28;20584;-48
2022/12/19 05:12:27;;;;;;;68.00;31.23;;;-0.50;99.90;;;;;;5014032;28;20025;-47
2022/12/19 05:14:52;;;;;;;61.58;29.20;;;-0.40;99.90;;;;;;5032392;28;20078;-45
2022/12/19 05:17:18;;;;;;;62.05;30.15;;;-0.40;99.90;;;;;;5032253;28;20100;-45
2022/12/19 05:19:43;;;;;;;63.92;30.38;;;-0.30;99.90;;;;;;5032207;28;20033;-44
2022/12/19 05:22:09;;;;;;;57.22;28.67;;;-0.30;99.90;;;;;;5031580;28;20066;-49
2022/12/19 05:24:34;;;;;;;60.20;30.65;;;-0.20;99.90;;;;;;5032305;28;20401;-45
2022/12/19 05:27:00;;;;;;;61.28;30.08;;;-0.20;99.90;;;;;;5031928;28;20040;-45
2022/12/19 05:29:25;;;;;;;62.95;30.80;;;-0.10;99.90;;;;;;5032249;28;20022;-46
2022/12/19 05:31:51;;;;;;;60.03;29.30;;;-0.10;99.90;;;;;;5031941;28;20084;-46
2022/12/19 05:34:16;;;;;;;62.38;30.00;;;-0.10;99.90;;;;;;5031725;28;20036;-47
2022/12/19 05:36:42;;;;;;;59.65;29.63;;;0.00;99.90;;;;;;5031953;28;20525;-48
2022/12/19 05:39:07;;;;;;;66.63;32.13;;;-0.10;99.90;;;;;;5032068;28;20397;-45
2022/12/19 05:41:33;;;;;;;66.20;32.15;;;-0.10;99.90;;;;;;5032015;28;20033;-46
2022/12/19 05:43:58;;;;;;;65.80;29.83;;;-0.10;99.90;;;;;;5031746;28;20445;-48
2022/12/19 05:46:24;;;;;;;61.90;31.45;;;-0.20;99.90;;;;;;5031583;28;20022;-48
2022/12/19 05:48:50;;;;;;;61.25;30.45;;;-0.20;99.90;;;;;;5031834;28;20021;-45
2022/12/19 05:51:16;;;;;;;61.95;31.20;;;-0.20;99.90;;;;;;5032297;28;20029;-43
2022/12/19 05:53:42;;;;;;;61.92;31.05;;;-0.20;99.90;;;;;;5029780;28;20022;-48
2022/12/19 05:56:16;;;;;;;60.42;30.30;;;-0.20;99.90;;;;;;5031854;28;20040;-45
2022/12/19 05:58:42;;;;;;;68.43;32.10;;;-0.20;99.90;;;;;;5031332;28;20029;-48
2022/12/19 06:01:17;;;;;;;63.55;30.90;;;-0.20;99.90;;;;;;5014090;28;20142;-46
2022/12/19 06:03:43;;;;;;;60.40;29.95;;;-0.20;99.90;;;;;;5031165;28;20033;-45
2022/12/19 06:06:11;;;;;;;58.90;30.33;;;-0.20;99.90;;;;;;5031585;28;20497;-44
2022/12/19 06:08:37;;;;;;;63.13;31.08;;;-0.10;99.90;;;;;;5032033;28;20029;-45
2022/12/19 06:11:04;;;;;;;62.28;31.20;;;-0.20;99.90;;;;;;5030672;28;20023;-44
2022/12/19 06:13:30;;;;;;;69.72;29.85;;;-0.20;99.90;;;;;;5035661;28;20109;-45
2022/12/19 06:16:01;;;;;;;60.63;30.27;;;-0.20;99.90;;;;;;5037122;28;20104;-47
2022/12/19 06:18:27;;;;;;;60.38;29.00;;;-0.20;99.90;;;;;;5034463;28;20468;-43
2022/12/19 06:21:05;;;;;;;65.43;31.83;;;-0.20;99.90;;;;;;5032475;28;20061;-41
2022/12/19 06:23:32;;;;;;;63.45;30.98;;;-0.20;99.90;;;;;;5013782;28;20570;-45
2022/12/19 06:25:59;;;;;;;66.55;31.60;;;-0.10;99.90;;;;;;5031720;28;20033;-43
2022/12/19 06:28:26;;;;;;;62.85;29.98;;;-0.10;99.90;;;;;;5032190;28;20562;-48
2022/12/19 06:30:54;;;;;;;56.70;28.60;;;-0.10;99.90;;;;;;5032959;28;20036;-43
2022/12/19 06:33:19;;;;;;;66.13;31.42;;;0.00;99.90;;;;;;5032587;28;20029;-45
2022/12/19 06:35:45;;;;;;;59.58;29.08;;;0.00;99.90;;;;;;5033603;28;20039;-44
2022/12/19 06:38:10;;;;;;;70.82;35.72;;;0.00;99.90;;;;;;5033223;28;20045;-43
2022/12/19 06:43:25;;;;;;;74.47;35.15;;;0.00;99.90;;;;;;5032293;28;20548;-44
2022/12/19 06:45:51;;;;;;;79.13;36.28;;;0.00;99.90;;;;;;5032330;28;20029;-47
2022/12/19 06:48:17;;;;;;;77.32;37.50;;;0.00;99.90;;;;;;5014542;28;20033;-43
2022/12/19 06:50:42;;;;;;;78.07;37.08;;;-0.10;99.90;;;;;;5031949;28;20108;-44
2022/12/19 06:53:08;;;;;;;74.75;33.63;;;-0.10;99.90;;;;;;5031386;28;20110;-44
2022/12/19 06:55:36;;;;;;;66.80;33.40;;;-0.10;99.90;;;;;;5031940;28;20026;-42
2022/12/19 06:58:02;;;;;;;69.70;34.35;;;-0.10;99.90;;;;;;5031768;28;20515;-47
2022/12/19 07:00:27;;;;;;;67.47;31.85;;;-0.10;99.90;;;;;;5031667;28;20036;-44
2022/12/19 07:02:54;;;;;;;67.20;33.38;;;0.00;99.90;;;;;;5031030;28;20034;-42
2022/12/19 07:05:21;;;;;;;71.38;33.85;;;0.00;99.90;;;;;;5031393;28;20500;-45
2022/12/19 07:07:46;;;;;;;77.85;33.25;;;0.00;99.90;;;;;;5032511;28;20037;-47
2022/12/19 07:10:12;;;;;;;70.40;32.20;;;-0.10;99.90;;;;;;5030703;28;20030;-46
2022/12/19 07:12:37;;;;;;;62.72;32.33;;;0.00;99.90;;;;;;5034452;28;20521;-46
2022/12/19 07:15:03;;;;;;;69.70;33.22;;;0.00;99.90;;;;;;5035062;28;20100;-45
2022/12/19 07:17:29;;;;;;;69.95;31.98;;;0.00;99.90;;;;;;5035192;28;20121;-50
2022/12/19 07:19:56;;;;;;;71.53;35.08;;;-0.10;99.90;;;;;;5034755;28;20057;-47
2022/12/19 07:22:26;;;;;;;64.47;32.05;;;0.10;99.90;;;;;;5034122;28;20048;-45
2022/12/19 07:24:51;;;;;;;70.80;34.90;;;0.10;99.90;;;;;;5034666;28;20028;-47
2022/12/19 07:27:17;;;;;;;76.70;36.67;;;0.00;99.90;;;;;;5034544;28;20029;-44
2022/12/19 07:29:42;;;;;;;66.85;34.13;;;-0.10;99.90;;;;;;5034723;28;20063;-45
2022/12/19 07:32:08;;;;;;;65.80;32.60;;;0.00;99.90;;;;;;5033893;28;20030;-46
2022/12/19 07:34:33;;;;;;;64.93;33.40;;;0.00;99.90;;;;;;5034471;28;20014;-48
2022/12/19 07:36:59;;;;;;;65.60;30.90;;;0.00;99.90;;;;;;5034509;28;20397;-47
2022/12/19 07:39:24;;;;;;;64.13;31.02;;;0.00;99.90;;;;;;5034591;28;20025;-45
2022/12/19 07:41:50;;;;;;;70.25;32.25;;;0.10;99.90;;;;;;5034169;28;20461;-43
2022/12/19 07:44:15;;;;;;;66.22;32.08;;;0.20;99.90;;;;;;5033516;28;20485;-49
2022/12/19 07:46:42;;;;;;;68.03;33.20;;;0.20;99.90;;;;;;5016498;28;20401;-47
2022/12/19 07:49:07;;;;;;;59.88;30.83;;;0.30;99.90;;;;;;5034296;28;20037;-50
2022/12/19 07:51:33;;;;;;;69.38;34.83;;;0.40;99.90;;;;;;5034821;28;20027;-49
2022/12/19 07:53:58;;;;;;;63.70;32.58;;;0.40;99.90;;;;;;5033516;28;20097;-49
2022/12/19 07:56:24;;;;;;;60.53;32.08;;;0.40;99.90;;;;;;5032363;28;20030;-50
2022/12/19 07:58:50;;;;;;;61.35;32.10;;;0.50;99.90;;;;;;5033970;28;20040;-47
2022/12/19 08:01:16;;;;;;;65.38;32.10;;;0.60;99.90;;;;;;5033779;28;20091;-44
2022/12/19 08:03:41;;;;;;;71.68;33.85;;;0.60;99.90;;;;;;5033216;28;20473;-44
2022/12/19 08:06:07;;;;;;;68.55;32.30;;;0.60;99.90;;;;;;5033749;28;20040;-47
2022/12/19 08:08:34;;;;;;;56.20;30.60;;;0.60;99.90;;;;;;5033802;28;20030;-46
2022/12/19 08:11:13;;;;;;;62.85;31.80;;;0.60;99.90;;;;;;5034277;28;20547;-46
2022/12/19 08:13:39;;;;;;;63.15;31.60;;;0.60;99.90;;;;;;5033348;28;20075;-47
2022/12/19 08:16:05;;;;;;;70.72;31.90;;;0.60;99.90;;;;;;5016097;28;20033;-45
2022/12/19 08:18:30;;;;;;;62.88;31.60;;;0.60;99.90;;;;;;5034188;28;20034;-47
2022/12/19 08:20:56;;;;;;;61.08;30.90;;;0.70;99.90;;;;;;5033530;28;20025;-45
2022/12/19 08:23:22;;;;;;;63.10;30.35;;;0.70;99.90;;;;;;5032964;28;20025;-45
2022/12/19 08:25:47;;;;;;;61.60;32.08;;;0.70;99.90;;;;;;5033730;28;20108;-45
2022/12/19 08:28:13;;;;;;;65.28;33.38;;;0.70;99.90;;;;;;5033765;28;20122;-49
2022/12/19 08:30:40;;;;;;;51.03;28.92;;;0.70;99.90;;;;;;5033795;28;20030;-46
2022/12/19 08:33:06;;;;;;;64.65;30.65;;;0.80;99.90;;;;;;5033067;28;20051;-45
2022/12/19 08:35:32;;;;;;;64.65;32.33;;;0.90;99.90;;;;;;5033957;28;20450;-46
2022/12/19 08:37:57;;;;;;;58.72;31.20;;;0.90;99.90;;;;;;5016259;28;20056;-48
2022/12/19 08:40:23;;;;;;;58.05;30.10;;;1.00;99.90;;;;;;5033990;28;20030;-46
2022/12/19 08:42:49;;;;;;;62.45;32.95;;;1.00;99.90;;;;;;5015469;28;20053;-48
2022/12/19 08:45:16;;;;;;;60.10;30.35;;;1.00;99.90;;;;;;5015728;28;20029;-50
2022/12/19 08:47:42;;;;;;;59.38;31.15;;;1.10;99.90;;;;;;5033248;28;20028;-49
2022/12/19 08:50:08;;;;;;;52.63;29.23;;;1.10;99.90;;;;;;5033404;28;20018;-44
2022/12/19 08:52:34;;;;;;;60.58;31.27;;;1.10;99.90;;;;;;5032700;28;20449;-49
2022/12/19 08:54:59;;;;;;;53.88;27.98;;;1.20;99.90;;;;;;5032171;28;20025;-46
2022/12/19 08:57:25;;;;;;;60.08;30.17;;;1.20;99.90;;;;;;5033042;28;20290;-45
2022/12/19 08:59:50;;;;;;;61.90;32.85;;;1.20;99.90;;;;;;5033802;28;20029;-47
2022/12/19 09:02:16;;;;;;;59.53;31.00;;;1.20;99.90;;;;;;5033032;28;20030;-46
2022/12/19 09:04:41;;;;;;;59.72;29.77;;;1.20;99.90;;;;;;5032589;28;20496;-48
2022/12/19 09:07:07;;;;;;;52.65;29.98;;;1.30;99.90;;;;;;5015042;28;20029;-47
2022/12/19 09:09:32;;;;;;;63.90;30.67;;;1.20;99.90;;;;;;5024948;28;20132;-50
2022/12/19 09:11:58;;;;;;;50.53;28.65;;;1.30;99.90;;;;;;5027794;28;20100;-51
2022/12/19 09:14:23;;;;;;;53.17;30.55;;;1.30;99.90;;;;;;5028211;28;20389;-50
2022/12/19 09:16:49;;;;;;;58.17;29.77;;;1.30;99.90;;;;;;5029970;28;20331;-45
2022/12/19 09:19:15;;;;;;;57.33;31.38;;;1.40;99.90;;;;;;5030729;28;20034;-49
2022/12/19 09:21:41;;;;;;;56.47;31.17;;;1.40;99.90;;;;;;5030345;28;20037;-47
2022/12/19 09:24:08;;;;;;;54.38;29.85;;;1.30;99.90;;;;;;5012004;28;20068;-50
2022/12/19 09:26:34;;;;;;;55.35;31.70;;;1.30;99.90;;;;;;5012782;28;20485;-48
2022/12/19 09:29:00;;;;;;;59.88;31.20;;;1.30;99.90;;;;;;5030765;28;20026;-46
2022/12/19 09:31:27;;;;;;;62.22;32.83;;;1.30;99.90;;;;;;5011915;28;20144;-49
2022/12/19 09:33:52;;;;;;;60.58;31.08;;;1.30;99.90;;;;;;5027661;28;20092;-48
2022/12/19 09:36:23;;;;;;;57.88;31.17;;;1.20;99.90;;;;;;5030173;28;20083;-46
2022/12/19 09:38:52;;;;;;;60.75;31.25;;;1.20;99.90;;;;;;5027154;28;20057;-49
2022/12/19 09:41:29;;;;;;;64.35;33.40;;;1.20;99.90;;;;;;5012021;28;20033;-48
2022/12/19 09:44:16;;;;;;;65.63;30.27;;;1.20;99.90;;;;;;5009917;28;20542;-53
2022/12/19 09:46:52;;;;;;;56.45;31.08;;;1.10;99.90;;;;;;5024377;28;20075;-53
2022/12/19 09:49:22;;;;;;;58.90;32.05;;;1.10;99.90;;;;;;5030304;28;20042;-48
2022/12/19 09:52:22;;;;;;;62.30;31.15;;;1.20;99.90;;;;;;5021247;28;20021;-51
2022/12/19 09:55:02;;;;;;;74.68;35.03;;;1.20;99.90;;;;;;5022248;28;20021;-47
2022/12/19 09:58:08;;;;;;;63.92;31.85;;;1.10;99.90;;;;;;5030164;28;20124;-47
2022/12/19 10:00:51;;;;;;;63.45;30.00;;;1.10;99.90;;;;;;5029550;28;20064;-44
2022/12/19 10:03:23;;;;;;;64.65;32.40;;;1.10;99.90;;;;;;5028841;28;20026;-43
2022/12/19 10:05:55;;;;;;;63.35;31.42;;;1.10;99.90;;;;;;5028739;28;20057;-47
2022/12/19 10:08:32;;;;;;;66.82;33.55;;;1.20;99.90;;;;;;5012099;28;20052;-47
2022/12/19 10:11:13;;;;;;;62.58;31.92;;;1.20;99.90;;;;;;5011668;28;20032;-52
2022/12/19 10:14:08;;;;;;;62.38;32.40;;;1.10;99.90;;;;;;5028250;28;20017;-48
2022/12/19 10:16:50;;;;;;;63.53;32.30;;;1.10;99.90;;;;;;5029637;28;20034;-44
2022/12/19 10:19:41;;;;;;;64.20;31.52;;;1.10;99.90;;;;;;5030463;28;20667;-46
2022/12/19 10:22:31;;;;;;;65.35;32.00;;;1.00;99.90;;;;;;5026254;28;20471;-45
2022/12/19 10:25:28;;;;;;;63.28;32.42;;;1.00;99.90;;;;;;5010290;28;20457;-51
2022/12/19 10:28:21;;;;;;;66.75;33.10;;;0.90;99.90;;;;;;5011862;28;20573;-44
2022/12/19 10:31:15;;;;;;;63.03;31.27;;;0.90;99.90;;;;;;5008602;28;20041;-47
2022/12/19 10:33:48;;;;;;;61.15;30.73;;;1.00;99.90;;;;;;5025740;28;20029;-47
2022/12/19 10:36:14;;;;;;;66.85;31.70;;;1.00;99.90;;;;;;5029029;28;20022;-44
2022/12/19 10:38:53;;;;;;;64.95;31.73;;;1.00;99.90;;;;;;5029296;28;20090;-45
2022/12/19 10:41:22;;;;;;;60.17;31.10;;;1.00;99.90;;;;;;5029430;28;20112;-47
2022/12/19 10:44:01;;;;;;;60.85;32.28;;;1.00;99.90;;;;;;5023443;28;20026;-62
2022/12/19 10:46:44;;;;;;;60.70;33.03;;;1.10;99.90;;;;;;5033164;28;20025;-45
2022/12/19 10:49:15;;;;;;;65.22;32.97;;;1.10;99.90;;;;;;5031055;28;20029;-57
2022/12/19 10:52:02;;;;;;;62.10;31.65;;;1.10;99.90;;;;;;5033029;28;20026;-47
2022/12/19 10:54:37;;;;;;;63.20;31.95;;;1.10;99.90;;;;;;5031242;28;20033;-48
2022/12/19 10:57:20;;;;;;;60.00;30.73;;;1.10;99.90;;;;;;5033300;28;20025;-52
2022/12/19 11:00:13;;;;;;;66.32;32.40;;;1.10;99.90;;;;;;5015702;28;20033;-49
2022/12/19 11:02:43;;;;;;;67.43;32.50;;;1.20;99.90;;;;;;5014617;28;20030;-51
2022/12/19 11:05:26;;;;;;;64.07;32.83;;;1.20;99.90;;;;;;5013826;28;20553;-47
2022/12/19 11:08:06;;;;;;;68.13;32.90;;;1.20;99.90;;;;;;5032278;28;20033;-46
2022/12/19 11:10:41;;;;;;;68.00;33.35;;;1.20;99.90;;;;;;5032524;28;20118;-51
2022/12/19 11:13:38;;;;;;;66.05;34.42;;;1.20;99.90;;;;;;5031879;28;20394;-54
2022/12/19 11:16:06;;;;;;;79.72;35.97;;;1.10;99.90;;;;;;5031763;28;20037;-50
2022/12/19 11:18:34;;;;;;;76.65;34.05;;;1.20;99.90;;;;;;5015223;28;20381;-52
2022/12/19 11:21:21;;;;;;;69.65;31.95;;;1.20;99.90;;;;;;5032544;28;20036;-51
2022/12/19 11:24:00;;;;;;;66.68;33.95;;;1.20;99.90;;;;;;5029537;28;20053;-48
2022/12/19 11:26:28;;;;;;;71.15;34.08;;;1.20;99.90;;;;;;5032519;28;20044;-50
2022/12/19 11:29:00;;;;;;;68.85;33.45;;;1.30;99.90;;;;;;5032582;28;20032;-52
2022/12/19 11:31:28;;;;;;;71.57;33.67;;;1.30;99.90;;;;;;5014286;28;20083;-47
2022/12/19 11:34:00;;;;;;;74.88;33.53;;;1.30;99.90;;;;;;5030153;28;20116;-47
2022/12/19 11:36:55;;;;;;;70.50;35.17;;;1.30;99.90;;;;;;5015019;28;20417;-49
2022/12/19 11:39:30;;;;;;;72.70;34.17;;;1.30;99.90;;;;;;5029760;28;20041;-46
2022/12/19 11:41:59;;;;;;;;;;;1.40;99.90;;;;;;5031601;28;20026;-40
2022/12/19 11:44:36;;;;;;;64.18;30.98;;;1.30;99.90;;;;;;5031966;28;19905;-50
2022/12/19 11:47:12;;;;;;;62.30;31.05;;;1.40;99.90;;;;;;5014421;28;20425;-48
2022/12/19 11:49:43;;;;;;;69.32;31.05;;;1.40;99.90;;;;;;5032512;28;20021;-51
2022/12/19 11:52:32;;;;;;;69.82;33.90;;;1.40;99.90;;;;;;5014854;28;20021;-45
2022/12/19 11:55:14;;;;;;;65.10;30.98;;;1.40;99.90;;;;;;5030917;28;20071;-43
2022/12/19 11:57:40;;;;;;;65.60;32.17;;;1.50;99.90;;;;;;5028609;28;20116;-54
2022/12/19 12:00:12;;;;;;;66.60;31.60;;;1.50;99.90;;;;;;5013711;28;20057;-55
2022/12/19 12:02:47;;;;;;;62.40;33.50;;;1.50;99.90;;;;;;5013257;28;20120;-46
2022/12/19 12:05:36;;;;;;;64.33;33.43;;;1.50;99.90;;;;;;5030810;28;20076;-45
2022/12/19 12:08:22;;;;;;;70.45;33.95;;;1.50;99.90;;;;;;5032135;28;20040;-45
2022/12/19 12:10:58;;;;;;;66.15;33.15;;;1.60;99.90;;;;;;5032197;28;20375;-49
2022/12/19 12:14:08;;;;;;;62.90;31.98;;;1.60;99.90;;;;;;5032751;28;20040;-48
2022/12/19 12:16:59;;;;;;;77.80;33.08;;;1.60;99.90;;;;;;5012611;28;20045;-47
2022/12/19 12:19:53;;;;;;;61.08;32.08;;;1.70;99.90;;;;;;4999356;28;20140;-48
2022/12/19 12:22:43;;;;;;;67.97;33.13;;;1.70;99.90;;;;;;5012302;28;20030;-54
2022/12/19 12:25:37;;;;;;;69.63;32.75;;;1.70;99.90;;;;;;5013211;28;20029;-45
2022/12/19 12:28:33;;;;;;;62.78;32.22;;;1.80;99.90;;;;;;5013285;28;20018;-56
2022/12/19 12:31:11;;;;;;;69.85;34.75;;;1.70;99.90;;;;;;5012776;28;20386;-47
2022/12/19 12:33:49;;;;;;;64.38;32.25;;;;;;;;;;5012904;28;20025;-53
2022/12/19 12:36:42;;;;;;;66.15;33.42;;;0.70;99.90;;;;;;5033465;28;20490;-51
2022/12/19 12:39:17;;;;;;;63.40;31.92;;;1.70;99.90;;;;;;5033146;28;20051;-49
2022/12/19 12:42:05;;;;;;;61.47;33.05;;;1.70;99.90;;;;;;5032620;28;20171;-50
2022/12/19 12:44:36;;;;;;;68.20;33.85;;;1.80;99.90;;;;;;5017122;28;20112;-50
2022/12/19 12:47:24;;;;;;;64.45;32.83;;;1.80;99.90;;;;;;5033060;28;20032;-54
2022/12/19 12:50:03;;;;;;;60.03;31.58;;;1.90;99.90;;;;;;5033653;28;20032;-46
2022/12/19 12:52:40;;;;;;;62.17;31.25;;;2.00;99.90;;;;;;5031750;28;20053;-50
2022/12/19 12:55:27;;;;;;;72.82;33.50;;;1.90;99.90;;;;;;5033303;28;20053;-50
2022/12/19 12:57:53;;;;;;;65.00;32.35;;;1.90;99.90;;;;;;5033332;28;20025;-49
2022/12/19 13:00:39;;;;;;;63.28;33.55;;;2.00;99.90;;;;;;5032573;28;20473;-55
2022/12/19 13:03:16;;;;;;;70.22;32.35;;;2.10;99.90;;;;;;5032588;28;20029;-50